N273KA KMYR-KLAN
Flight info
| Callsign | N273KA |
|---|---|
| Flight time | 1h 39m |
| Altitude | 43000 |
| Route | FLO REAVS LAYED J85 JAMOX CRL |
| Aircraft | FA50/M-SDFGHIM1RWXY/HB2 |
Departure
| Time | 2026-04-26 12:12 |
|---|---|
| Airport | Myrtle Beach International Airport (KMYR) |
Arrival
| Time | 2026-04-26 13:51 |
|---|---|
| Airport | Capital Region International Airport (KLAN) |
| Time | Latitude | Longitude | Altitude | Speed | Heading |
|---|---|---|---|---|---|
| 2026-04-26 11:51 | 33.67427 | -78.93388 | 25 ft | 0 kts | 169° |
| 2026-04-26 12:06 | 33.67426 | -78.93388 | 25 ft | 0 kts | 169° |
| 2026-04-26 12:06 | 33.67422 | -78.93387 | 25 ft | 0 kts | 169° |
| 2026-04-26 12:07 | 33.67416 | -78.93385 | 25 ft | 0 kts | 163° |
| 2026-04-26 12:07 | 33.67411 | -78.93378 | 25 ft | 1 kts | 108° |
| 2026-04-26 12:07 | 33.67411 | -78.93361 | 25 ft | 2 kts | 77° |
| 2026-04-26 12:07 | 33.67416 | -78.93335 | 25 ft | 3 kts | 77° |
| 2026-04-26 12:08 | 33.67424 | -78.93291 | 24 ft | 6 kts | 78° |
| 2026-04-26 12:08 | 33.67429 | -78.93262 | 23 ft | 4 kts | 78° |
| 2026-04-26 12:08 | 33.67436 | -78.93220 | 23 ft | 5 kts | 78° |
| 2026-04-26 12:08 | 33.67445 | -78.93172 | 23 ft | 6 kts | 78° |
| 2026-04-26 12:09 | 33.67455 | -78.93115 | 23 ft | 7 kts | 78° |
| 2026-04-26 12:09 | 33.67431 | -78.93063 | 23 ft | 10 kts | 165° |
| 2026-04-26 12:09 | 33.67341 | -78.93040 | 23 ft | 16 kts | 167° |
| 2026-04-26 12:09 | 33.67212 | -78.93007 | 23 ft | 21 kts | 169° |
| 2026-04-26 12:10 | 33.67065 | -78.92970 | 23 ft | 18 kts | 168° |
| 2026-04-26 12:10 | 33.66949 | -78.92941 | 23 ft | 15 kts | 168° |
| 2026-04-26 12:10 | 33.66857 | -78.92918 | 23 ft | 12 kts | 167° |
| 2026-04-26 12:10 | 33.66761 | -78.92893 | 23 ft | 16 kts | 168° |
| 2026-04-26 12:11 | 33.66670 | -78.92835 | 23 ft | 13 kts | 115° |
| 2026-04-26 12:11 | 33.66669 | -78.92730 | 21 ft | 14 kts | 77° |
| 2026-04-26 12:11 | 33.66690 | -78.92610 | 20 ft | 12 kts | 78° |
| 2026-04-26 12:11 | 33.66706 | -78.92529 | 21 ft | 7 kts | 70° |
| 2026-04-26 12:12 | 33.66748 | -78.92528 | 21 ft | 21 kts | 348° |
| 2026-04-26 12:12 | 33.67211 | -78.92641 | 23 ft | 110 kts | 348° |
| 2026-04-26 12:12 | 33.68037 | -78.92848 | 524 ft | 127 kts | 348° |
| 2026-04-26 12:12 | 33.68610 | -78.92999 | 985 ft | 133 kts | 348° |
| 2026-04-26 12:13 | 33.69960 | -78.93362 | 1924 ft | 170 kts | 347° |
| 2026-04-26 12:13 | 33.71176 | -78.93693 | 2726 ft | 197 kts | 347° |
| 2026-04-26 12:13 | 33.72567 | -78.94087 | 3707 ft | 218 kts | 345° |
| 2026-04-26 12:13 | 33.74015 | -78.94697 | 4763 ft | 235 kts | 329° |
| 2026-04-26 12:14 | 33.75318 | -78.95889 | 5893 ft | 249 kts | 313° |
| 2026-04-26 12:14 | 33.76491 | -78.97436 | 7046 ft | 263 kts | 309° |
| 2026-04-26 12:14 | 33.77649 | -78.99133 | 8318 ft | 274 kts | 307° |
| 2026-04-26 12:14 | 33.78828 | -79.00906 | 9773 ft | 279 kts | 307° |
| 2026-04-26 12:15 | 33.80022 | -79.02734 | 11026 ft | 290 kts | 307° |
| 2026-04-26 12:15 | 33.81260 | -79.04617 | 12442 ft | 293 kts | 306° |
| 2026-04-26 12:15 | 33.82519 | -79.06561 | 13570 ft | 303 kts | 306° |
| 2026-04-26 12:15 | 33.83816 | -79.08466 | 15113 ft | 297 kts | 308° |
| 2026-04-26 12:16 | 33.85171 | -79.10422 | 15899 ft | 314 kts | 307° |
| 2026-04-26 12:16 | 33.86533 | -79.12412 | 17156 ft | 313 kts | 307° |
| 2026-04-26 12:16 | 33.87912 | -79.14439 | 18094 ft | 322 kts | 307° |
| 2026-04-26 12:16 | 33.89325 | -79.16506 | 19017 ft | 328 kts | 307° |
| 2026-04-26 12:17 | 33.90782 | -79.18584 | 20060 ft | 329 kts | 307° |
| 2026-04-26 12:17 | 33.92245 | -79.20702 | 20964 ft | 334 kts | 307° |
| 2026-04-26 12:17 | 33.93735 | -79.22859 | 21859 ft | 337 kts | 307° |
| 2026-04-26 12:17 | 33.95238 | -79.25030 | 22715 ft | 340 kts | 307° |
| 2026-04-26 12:18 | 33.96740 | -79.27200 | 23519 ft | 343 kts | 307° |
| 2026-04-26 12:18 | 33.98273 | -79.29415 | 24297 ft | 346 kts | 307° |
| 2026-04-26 12:18 | 33.99808 | -79.31634 | 24968 ft | 351 kts | 307° |
| 2026-04-26 12:18 | 34.01371 | -79.33896 | 25559 ft | 357 kts | 306° |
| 2026-04-26 12:19 | 34.02910 | -79.36122 | 26189 ft | 361 kts | 306° |
| 2026-04-26 12:19 | 34.04528 | -79.38466 | 26794 ft | 365 kts | 306° |
| 2026-04-26 12:19 | 34.06156 | -79.40826 | 27376 ft | 369 kts | 306° |
| 2026-04-26 12:19 | 34.07774 | -79.43174 | 27944 ft | 372 kts | 306° |
| 2026-04-26 12:20 | 34.09428 | -79.45574 | 28485 ft | 376 kts | 306° |
| 2026-04-26 12:20 | 34.11093 | -79.47992 | 28984 ft | 380 kts | 306° |
| 2026-04-26 12:20 | 34.12781 | -79.50443 | 29486 ft | 383 kts | 306° |
| 2026-04-26 12:20 | 34.14501 | -79.52942 | 29982 ft | 386 kts | 306° |
| 2026-04-26 12:21 | 34.15633 | -79.54588 | 30274 ft | 389 kts | 306° |
| 2026-04-26 12:21 | 34.17927 | -79.57926 | 30963 ft | 390 kts | 306° |
| 2026-04-26 12:21 | 34.19646 | -79.60429 | 31439 ft | 392 kts | 306° |
| 2026-04-26 12:21 | 34.21421 | -79.62932 | 31876 ft | 396 kts | 310° |
| 2026-04-26 12:22 | 34.23518 | -79.65109 | 32313 ft | 403 kts | 320° |
| 2026-04-26 12:22 | 34.25957 | -79.66786 | 32767 ft | 411 kts | 331° |
| 2026-04-26 12:22 | 34.28569 | -79.67985 | 33182 ft | 415 kts | 335° |
| 2026-04-26 12:22 | 34.31300 | -79.69146 | 33583 ft | 417 kts | 335° |
| 2026-04-26 12:23 | 34.33969 | -79.70271 | 33962 ft | 419 kts | 335° |
| 2026-04-26 12:23 | 34.36701 | -79.71425 | 34390 ft | 419 kts | 335° |
| 2026-04-26 12:23 | 34.39434 | -79.72581 | 34920 ft | 416 kts | 335° |
| 2026-04-26 12:23 | 34.42158 | -79.73735 | 35498 ft | 412 kts | 335° |
| 2026-04-26 12:24 | 34.44821 | -79.74865 | 36028 ft | 409 kts | 335° |
| 2026-04-26 12:24 | 34.47511 | -79.76008 | 36537 ft | 407 kts | 335° |
| 2026-04-26 12:24 | 34.50140 | -79.77127 | 36991 ft | 405 kts | 335° |
| 2026-04-26 12:25 | 34.55341 | -79.79343 | 37852 ft | 402 kts | 335° |
| 2026-04-26 12:25 | 34.57985 | -79.80472 | 38253 ft | 401 kts | 335° |
| 2026-04-26 12:25 | 34.60603 | -79.81589 | 38652 ft | 400 kts | 335° |
| 2026-04-26 12:25 | 34.63199 | -79.82698 | 39066 ft | 398 kts | 335° |
| 2026-04-26 12:26 | 34.65797 | -79.83809 | 39390 ft | 399 kts | 335° |
| 2026-04-26 12:26 | 34.68400 | -79.84924 | 39621 ft | 401 kts | 335° |
| 2026-04-26 12:26 | 34.71012 | -79.86043 | 39912 ft | 402 kts | 335° |
| 2026-04-26 12:26 | 34.73671 | -79.87183 | 40203 ft | 403 kts | 335° |
| 2026-04-26 12:27 | 34.76263 | -79.88294 | 40460 ft | 404 kts | 335° |
| 2026-04-26 12:27 | 34.77952 | -79.89018 | 40622 ft | 405 kts | 335° |
| 2026-04-26 12:27 | 34.81417 | -79.90505 | 40977 ft | 406 kts | 336° |
| 2026-04-26 12:27 | 34.84032 | -79.91629 | 41220 ft | 407 kts | 336° |
| 2026-04-26 12:28 | 34.86613 | -79.92738 | 41495 ft | 407 kts | 336° |
| 2026-04-26 12:28 | 34.88340 | -79.93481 | 41654 ft | 407 kts | 336° |
| 2026-04-26 12:28 | 34.90977 | -79.94616 | 41890 ft | 408 kts | 336° |
| 2026-04-26 12:28 | 34.94390 | -79.96086 | 42183 ft | 410 kts | 336° |
| 2026-04-26 12:29 | 34.97053 | -79.97234 | 42427 ft | 410 kts | 336° |
| 2026-04-26 12:29 | 34.99711 | -79.98380 | 42647 ft | 411 kts | 336° |
| 2026-04-26 12:29 | 35.05028 | -80.00677 | 42993 ft | 412 kts | 336° |
| 2026-04-26 12:30 | 35.07718 | -80.01840 | 42979 ft | 415 kts | 336° |
| 2026-04-26 12:30 | 35.13046 | -80.04146 | 42983 ft | 419 kts | 336° |
| 2026-04-26 12:31 | 35.21197 | -80.07679 | 42984 ft | 424 kts | 336° |
| 2026-04-26 12:31 | 35.26604 | -80.10027 | 42987 ft | 426 kts | 336° |
| 2026-04-26 12:32 | 35.31124 | -80.11992 | 42987 ft | 428 kts | 336° |
| 2026-04-26 12:33 | 35.40378 | -80.16022 | 42991 ft | 431 kts | 336° |
| 2026-04-26 12:33 | 35.45881 | -80.18424 | 42995 ft | 433 kts | 336° |
| 2026-04-26 12:34 | 35.50476 | -80.20431 | 42996 ft | 434 kts | 337° |
| 2026-04-26 12:34 | 35.56861 | -80.23226 | 42998 ft | 435 kts | 336° |
| 2026-04-26 12:35 | 35.62434 | -80.25669 | 42998 ft | 436 kts | 337° |
| 2026-04-26 12:35 | 35.67979 | -80.28103 | 42997 ft | 437 kts | 337° |
| 2026-04-26 12:36 | 35.73581 | -80.30566 | 42998 ft | 438 kts | 337° |
| 2026-04-26 12:36 | 35.79306 | -80.33086 | 42997 ft | 438 kts | 337° |
| 2026-04-26 12:37 | 35.84998 | -80.35596 | 42996 ft | 439 kts | 337° |
| 2026-04-26 12:37 | 35.89761 | -80.37700 | 43005 ft | 439 kts | 337° |
| 2026-04-26 12:38 | 35.95492 | -80.40234 | 43018 ft | 438 kts | 337° |
| 2026-04-26 12:38 | 36.01182 | -80.42754 | 43031 ft | 438 kts | 337° |
| 2026-04-26 12:39 | 36.07879 | -80.45726 | 43032 ft | 439 kts | 337° |
| 2026-04-26 12:39 | 36.13514 | -80.48230 | 43034 ft | 439 kts | 337° |
| 2026-04-26 12:40 | 36.19224 | -80.50771 | 43033 ft | 439 kts | 337° |
| 2026-04-26 12:40 | 36.23983 | -80.52892 | 43033 ft | 439 kts | 337° |
| 2026-04-26 12:41 | 36.29717 | -80.55452 | 43033 ft | 439 kts | 337° |
| 2026-04-26 12:41 | 36.35438 | -80.58009 | 43032 ft | 440 kts | 337° |
| 2026-04-26 12:42 | 36.42130 | -80.61006 | 43032 ft | 440 kts | 337° |
| 2026-04-26 12:42 | 36.47886 | -80.63588 | 43032 ft | 440 kts | 337° |
| 2026-04-26 12:43 | 36.53577 | -80.66145 | 43046 ft | 440 kts | 336° |
| 2026-04-26 12:43 | 36.58291 | -80.68265 | 43053 ft | 440 kts | 336° |
| 2026-04-26 12:44 | 36.64010 | -80.70842 | 43063 ft | 440 kts | 336° |
| 2026-04-26 12:44 | 36.69747 | -80.73431 | 43065 ft | 440 kts | 336° |
| 2026-04-26 12:45 | 36.75409 | -80.76143 | 43065 ft | 439 kts | 334° |
| 2026-04-26 12:45 | 36.81035 | -80.79010 | 43064 ft | 439 kts | 334° |
| 2026-04-26 12:46 | 36.86698 | -80.81876 | 43064 ft | 439 kts | 334° |
| 2026-04-26 12:46 | 36.92342 | -80.84723 | 43064 ft | 439 kts | 334° |
| 2026-04-26 12:47 | 36.97947 | -80.87548 | 43063 ft | 439 kts | 334° |
| 2026-04-26 12:47 | 37.03596 | -80.90397 | 43064 ft | 439 kts | 334° |
| 2026-04-26 12:48 | 37.09270 | -80.93263 | 43066 ft | 439 kts | 334° |
| 2026-04-26 12:48 | 37.14807 | -80.96062 | 43072 ft | 439 kts | 334° |
| 2026-04-26 12:49 | 37.21354 | -80.99380 | 43086 ft | 439 kts | 334° |
| 2026-04-26 12:49 | 37.26045 | -81.01762 | 43095 ft | 438 kts | 334° |
| 2026-04-26 12:50 | 37.31705 | -81.04637 | 43104 ft | 438 kts | 334° |
| 2026-04-26 12:50 | 37.37310 | -81.07491 | 43105 ft | 438 kts | 334° |
| 2026-04-26 12:51 | 37.42961 | -81.10371 | 43108 ft | 438 kts | 334° |
| 2026-04-26 12:51 | 37.48531 | -81.13215 | 43108 ft | 438 kts | 334° |
| 2026-04-26 12:52 | 37.54163 | -81.16094 | 43108 ft | 438 kts | 334° |
| 2026-04-26 12:52 | 37.59783 | -81.18973 | 43108 ft | 438 kts | 334° |
| 2026-04-26 12:53 | 37.65369 | -81.21838 | 43108 ft | 438 kts | 335° |
| 2026-04-26 12:53 | 37.71016 | -81.24741 | 43107 ft | 438 kts | 334° |
| 2026-04-26 12:54 | 37.76570 | -81.27599 | 43107 ft | 437 kts | 335° |
| 2026-04-26 12:54 | 37.82171 | -81.30487 | 43101 ft | 438 kts | 335° |
| 2026-04-26 12:55 | 37.87711 | -81.33349 | 43094 ft | 438 kts | 335° |
| 2026-04-26 12:55 | 37.93205 | -81.36191 | 43088 ft | 438 kts | 335° |
| 2026-04-26 12:56 | 37.98838 | -81.39110 | 43087 ft | 437 kts | 335° |
| 2026-04-26 12:56 | 38.04419 | -81.42007 | 43086 ft | 437 kts | 335° |
| 2026-04-26 12:57 | 38.10007 | -81.44911 | 43086 ft | 437 kts | 335° |
| 2026-04-26 12:57 | 38.15382 | -81.47710 | 43089 ft | 437 kts | 335° |
| 2026-04-26 12:58 | 38.23756 | -81.52079 | 43089 ft | 437 kts | 335° |
| 2026-04-26 12:58 | 38.29291 | -81.54973 | 43090 ft | 437 kts | 335° |
| 2026-04-26 12:59 | 38.34900 | -81.57910 | 43093 ft | 437 kts | 335° |
| 2026-04-26 12:59 | 38.40466 | -81.60831 | 43096 ft | 437 kts | 335° |
| 2026-04-26 13:00 | 38.46070 | -81.63776 | 43096 ft | 437 kts | 335° |
| 2026-04-26 13:00 | 38.51589 | -81.66680 | 43103 ft | 437 kts | 334° |
| 2026-04-26 13:01 | 38.57158 | -81.69617 | 43102 ft | 437 kts | 334° |
| 2026-04-26 13:01 | 38.62783 | -81.72588 | 43102 ft | 438 kts | 334° |
| 2026-04-26 13:02 | 38.68383 | -81.75549 | 43101 ft | 438 kts | 334° |
| 2026-04-26 13:02 | 38.74043 | -81.78414 | 43100 ft | 440 kts | 339° |
| 2026-04-26 13:03 | 38.80026 | -81.79969 | 43102 ft | 446 kts | 351° |
| 2026-04-26 13:03 | 38.86179 | -81.80464 | 43100 ft | 448 kts | 353° |
| 2026-04-26 13:04 | 38.92358 | -81.80862 | 43104 ft | 448 kts | 353° |
| 2026-04-26 13:04 | 38.98572 | -81.81274 | 43115 ft | 448 kts | 353° |
| 2026-04-26 13:05 | 39.04777 | -81.81690 | 43126 ft | 448 kts | 353° |
| 2026-04-26 13:05 | 39.10551 | -81.82080 | 43128 ft | 448 kts | 353° |
| 2026-04-26 13:06 | 39.16735 | -81.82501 | 43130 ft | 449 kts | 353° |
| 2026-04-26 13:06 | 39.22976 | -81.82925 | 43130 ft | 449 kts | 353° |
| 2026-04-26 13:07 | 39.29202 | -81.83350 | 43129 ft | 450 kts | 353° |
| 2026-04-26 13:07 | 39.35384 | -81.83773 | 43129 ft | 450 kts | 353° |
| 2026-04-26 13:08 | 39.41627 | -81.84200 | 43147 ft | 450 kts | 353° |
| 2026-04-26 13:08 | 39.47855 | -81.84628 | 43147 ft | 450 kts | 353° |
| 2026-04-26 13:09 | 39.54065 | -81.85055 | 43147 ft | 451 kts | 353° |
| 2026-04-26 13:09 | 39.60341 | -81.85487 | 43154 ft | 451 kts | 353° |
| 2026-04-26 13:10 | 39.66556 | -81.85927 | 43159 ft | 450 kts | 352° |
| 2026-04-26 13:10 | 39.72617 | -81.87573 | 43166 ft | 444 kts | 337° |
| 2026-04-26 13:11 | 39.78182 | -81.90845 | 43163 ft | 441 kts | 330° |
| 2026-04-26 13:11 | 39.83596 | -81.94435 | 43160 ft | 441 kts | 330° |
| 2026-04-26 13:12 | 39.89051 | -81.98055 | 43159 ft | 442 kts | 330° |
| 2026-04-26 13:12 | 39.94519 | -82.01676 | 43157 ft | 442 kts | 330° |
| 2026-04-26 13:13 | 39.99973 | -82.05289 | 43155 ft | 442 kts | 330° |
| 2026-04-26 13:13 | 40.05423 | -82.08903 | 43153 ft | 442 kts | 330° |
| 2026-04-26 13:14 | 40.10595 | -82.12338 | 43154 ft | 442 kts | 330° |
| 2026-04-26 13:14 | 40.16060 | -82.15974 | 43155 ft | 442 kts | 330° |
| 2026-04-26 13:15 | 40.21528 | -82.19617 | 43157 ft | 442 kts | 330° |
| 2026-04-26 13:15 | 40.26966 | -82.23248 | 43160 ft | 442 kts | 330° |
| 2026-04-26 13:16 | 40.32365 | -82.26859 | 43162 ft | 442 kts | 330° |
| 2026-04-26 13:16 | 40.37799 | -82.30500 | 43163 ft | 443 kts | 330° |
| 2026-04-26 13:17 | 40.45978 | -82.35993 | 43162 ft | 443 kts | 330° |
| 2026-04-26 13:18 | 40.54101 | -82.41463 | 43162 ft | 443 kts | 330° |
| 2026-04-26 13:19 | 40.62279 | -82.46986 | 43161 ft | 442 kts | 330° |
| 2026-04-26 13:19 | 40.67726 | -82.50673 | 43163 ft | 442 kts | 330° |
| 2026-04-26 13:20 | 40.73178 | -82.54369 | 43165 ft | 442 kts | 330° |
| 2026-04-26 13:20 | 40.78610 | -82.58061 | 43168 ft | 442 kts | 330° |
| 2026-04-26 13:21 | 40.84040 | -82.61756 | 43169 ft | 442 kts | 330° |
| 2026-04-26 13:21 | 40.89426 | -82.65429 | 43171 ft | 442 kts | 330° |
| 2026-04-26 13:22 | 40.94929 | -82.69188 | 43174 ft | 443 kts | 330° |
| 2026-04-26 13:22 | 41.00382 | -82.72920 | 43174 ft | 443 kts | 330° |
| 2026-04-26 13:23 | 41.05806 | -82.76638 | 43173 ft | 443 kts | 330° |
| 2026-04-26 13:23 | 41.10983 | -82.80195 | 43174 ft | 444 kts | 330° |
| 2026-04-26 13:24 | 41.16691 | -82.84124 | 43093 ft | 443 kts | 330° |
| 2026-04-26 13:24 | 41.19382 | -82.85979 | 42848 ft | 440 kts | 330° |
| 2026-04-26 13:24 | 41.22085 | -82.87843 | 42594 ft | 438 kts | 330° |
| 2026-04-26 13:24 | 41.24751 | -82.89684 | 42239 ft | 439 kts | 330° |
| 2026-04-26 13:25 | 41.27388 | -82.91508 | 41880 ft | 440 kts | 330° |
| 2026-04-26 13:25 | 41.30090 | -82.93378 | 41424 ft | 442 kts | 330° |
| 2026-04-26 13:25 | 41.32783 | -82.95242 | 40913 ft | 443 kts | 330° |
| 2026-04-26 13:25 | 41.35510 | -82.97132 | 40391 ft | 442 kts | 330° |
| 2026-04-26 13:26 | 41.38189 | -82.98989 | 39877 ft | 440 kts | 330° |
| 2026-04-26 13:26 | 41.40901 | -83.00873 | 39355 ft | 439 kts | 330° |
| 2026-04-26 13:26 | 41.43595 | -83.02745 | 38832 ft | 438 kts | 330° |
| 2026-04-26 13:26 | 41.46285 | -83.04616 | 38285 ft | 437 kts | 330° |
| 2026-04-26 13:27 | 41.48929 | -83.06458 | 37745 ft | 436 kts | 330° |
| 2026-04-26 13:27 | 41.51605 | -83.08323 | 37197 ft | 436 kts | 330° |
| 2026-04-26 13:27 | 41.54306 | -83.10207 | 36643 ft | 435 kts | 330° |
| 2026-04-26 13:27 | 41.56967 | -83.12067 | 36096 ft | 435 kts | 330° |
| 2026-04-26 13:28 | 41.59616 | -83.13918 | 35551 ft | 435 kts | 330° |
| 2026-04-26 13:28 | 41.62299 | -83.15796 | 34998 ft | 436 kts | 330° |
| 2026-04-26 13:28 | 41.64988 | -83.17680 | 34447 ft | 437 kts | 331° |
| 2026-04-26 13:28 | 41.67646 | -83.19545 | 33903 ft | 439 kts | 331° |
| 2026-04-26 13:29 | 41.70361 | -83.21450 | 33349 ft | 440 kts | 331° |
| 2026-04-26 13:29 | 41.73058 | -83.23344 | 32801 ft | 441 kts | 331° |
| 2026-04-26 13:29 | 41.75755 | -83.25242 | 32254 ft | 443 kts | 331° |
| 2026-04-26 13:29 | 41.78480 | -83.27159 | 31702 ft | 444 kts | 331° |
| 2026-04-26 13:30 | 41.81180 | -83.29061 | 31157 ft | 445 kts | 331° |
| 2026-04-26 13:30 | 41.83916 | -83.30991 | 30605 ft | 445 kts | 331° |
| 2026-04-26 13:30 | 41.86653 | -83.32922 | 30052 ft | 446 kts | 331° |
| 2026-04-26 13:30 | 41.89391 | -83.34857 | 29500 ft | 446 kts | 331° |
| 2026-04-26 13:31 | 41.92124 | -83.36790 | 28949 ft | 447 kts | 331° |
| 2026-04-26 13:31 | 41.94841 | -83.38713 | 28401 ft | 447 kts | 331° |
| 2026-04-26 13:31 | 41.97583 | -83.40656 | 27849 ft | 447 kts | 331° |
| 2026-04-26 13:31 | 42.00321 | -83.42599 | 27298 ft | 447 kts | 331° |
| 2026-04-26 13:32 | 42.03014 | -83.44655 | 26741 ft | 446 kts | 326° |
| 2026-04-26 13:32 | 42.05466 | -83.47165 | 26187 ft | 445 kts | 318° |
| 2026-04-26 13:32 | 42.07645 | -83.50063 | 25638 ft | 443 kts | 312° |
| 2026-04-26 13:32 | 42.09721 | -83.53134 | 25085 ft | 443 kts | 311° |
| 2026-04-26 13:33 | 42.11736 | -83.56213 | 24537 ft | 443 kts | 310° |
| 2026-04-26 13:33 | 42.13738 | -83.59293 | 23991 ft | 443 kts | 310° |
| 2026-04-26 13:33 | 42.15752 | -83.62384 | 23442 ft | 443 kts | 310° |
| 2026-04-26 13:33 | 42.17765 | -83.65470 | 22895 ft | 442 kts | 310° |
| 2026-04-26 13:34 | 42.19774 | -83.68547 | 22352 ft | 440 kts | 310° |
| 2026-04-26 13:34 | 42.21778 | -83.71616 | 21797 ft | 429 kts | 310° |
| 2026-04-26 13:34 | 42.23727 | -83.74602 | 21246 ft | 422 kts | 310° |
| 2026-04-26 13:34 | 42.25015 | -83.76575 | 20877 ft | 418 kts | 309° |
| 2026-04-26 13:35 | 42.27532 | -83.80434 | 20147 ft | 410 kts | 309° |
| 2026-04-26 13:35 | 42.29409 | -83.83315 | 19595 ft | 406 kts | 309° |
| 2026-04-26 13:35 | 42.31235 | -83.86120 | 19051 ft | 402 kts | 309° |
| 2026-04-26 13:35 | 42.33084 | -83.88963 | 18496 ft | 398 kts | 309° |
| 2026-04-26 13:36 | 42.34901 | -83.91758 | 17946 ft | 395 kts | 309° |
| 2026-04-26 13:36 | 42.36698 | -83.94526 | 17396 ft | 392 kts | 310° |
| 2026-04-26 13:36 | 42.38462 | -83.97245 | 16854 ft | 389 kts | 310° |
| 2026-04-26 13:36 | 42.40247 | -83.99999 | 16300 ft | 387 kts | 310° |
| 2026-04-26 13:37 | 42.41970 | -84.02659 | 15755 ft | 374 kts | 310° |
| 2026-04-26 13:37 | 42.43653 | -84.05258 | 15198 ft | 361 kts | 310° |
| 2026-04-26 13:37 | 42.45289 | -84.07787 | 14640 ft | 350 kts | 310° |
| 2026-04-26 13:37 | 42.46849 | -84.10198 | 14093 ft | 341 kts | 310° |
| 2026-04-26 13:38 | 42.48401 | -84.12604 | 13535 ft | 333 kts | 311° |
| 2026-04-26 13:38 | 42.49901 | -84.14928 | 12986 ft | 327 kts | 311° |
| 2026-04-26 13:38 | 42.51382 | -84.17226 | 12435 ft | 322 kts | 311° |
| 2026-04-26 13:38 | 42.52643 | -84.19672 | 11876 ft | 319 kts | 295° |
| 2026-04-26 13:39 | 42.53333 | -84.22498 | 11337 ft | 316 kts | 287° |
| 2026-04-26 13:39 | 42.53928 | -84.25337 | 10793 ft | 313 kts | 287° |
| 2026-04-26 13:39 | 42.54505 | -84.28122 | 10495 ft | 303 kts | 287° |
| 2026-04-26 13:39 | 42.55072 | -84.30826 | 10237 ft | 293 kts | 287° |
| 2026-04-26 13:40 | 42.55625 | -84.33453 | 9981 ft | 285 kts | 287° |
| 2026-04-26 13:40 | 42.56166 | -84.36011 | 9727 ft | 281 kts | 288° |
| 2026-04-26 13:40 | 42.56704 | -84.38555 | 9476 ft | 280 kts | 288° |
| 2026-04-26 13:40 | 42.57246 | -84.41108 | 9232 ft | 288 kts | 288° |
| 2026-04-26 13:41 | 42.57800 | -84.43724 | 8986 ft | 288 kts | 288° |
| 2026-04-26 13:41 | 42.58357 | -84.46354 | 8734 ft | 288 kts | 288° |
| 2026-04-26 13:41 | 42.58901 | -84.48923 | 8489 ft | 287 kts | 288° |
| 2026-04-26 13:41 | 42.59452 | -84.51535 | 8239 ft | 286 kts | 288° |
| 2026-04-26 13:42 | 42.59996 | -84.54110 | 7989 ft | 282 kts | 288° |
| 2026-04-26 13:42 | 42.60536 | -84.56672 | 7737 ft | 279 kts | 288° |
| 2026-04-26 13:42 | 42.61065 | -84.59184 | 7489 ft | 277 kts | 288° |
| 2026-04-26 13:42 | 42.61587 | -84.61664 | 7243 ft | 277 kts | 287° |
| 2026-04-26 13:43 | 42.62118 | -84.64191 | 6994 ft | 277 kts | 287° |
| 2026-04-26 13:43 | 42.62647 | -84.66715 | 6744 ft | 277 kts | 287° |
| 2026-04-26 13:43 | 42.63170 | -84.69208 | 6496 ft | 278 kts | 287° |
| 2026-04-26 13:43 | 42.63703 | -84.71758 | 6243 ft | 277 kts | 287° |
| 2026-04-26 13:44 | 42.64228 | -84.74271 | 5993 ft | 277 kts | 287° |
| 2026-04-26 13:44 | 42.64751 | -84.76776 | 5744 ft | 277 kts | 286° |
| 2026-04-26 13:44 | 42.65266 | -84.79241 | 5489 ft | 267 kts | 287° |
| 2026-04-26 13:44 | 42.66014 | -84.81475 | 5228 ft | 255 kts | 306° |
| 2026-04-26 13:45 | 42.67222 | -84.83112 | 4976 ft | 242 kts | 328° |
| 2026-04-26 13:45 | 42.68727 | -84.84025 | 4723 ft | 231 kts | 349° |
| 2026-04-26 13:45 | 42.70286 | -84.84217 | 4475 ft | 224 kts | 2° |
| 2026-04-26 13:45 | 42.71814 | -84.84212 | 4222 ft | 218 kts | 4° |
| 2026-04-26 13:46 | 42.73307 | -84.84185 | 3969 ft | 214 kts | 4° |
| 2026-04-26 13:46 | 42.74786 | -84.84161 | 3714 ft | 210 kts | 4° |
| 2026-04-26 13:46 | 42.76179 | -84.83765 | 3460 ft | 202 kts | 28° |
| 2026-04-26 13:46 | 42.77255 | -84.82658 | 3218 ft | 194 kts | 53° |
| 2026-04-26 13:47 | 42.77859 | -84.81058 | 3008 ft | 186 kts | 78° |
| 2026-04-26 13:47 | 42.77967 | -84.79349 | 2990 ft | 176 kts | 90° |
| 2026-04-26 13:47 | 42.77943 | -84.77741 | 2993 ft | 170 kts | 91° |
| 2026-04-26 13:47 | 42.77923 | -84.76124 | 2999 ft | 170 kts | 91° |
| 2026-04-26 13:48 | 42.77915 | -84.74546 | 2989 ft | 162 kts | 90° |
| 2026-04-26 13:48 | 42.77909 | -84.73023 | 2750 ft | 159 kts | 90° |
| 2026-04-26 13:48 | 42.77903 | -84.71573 | 2548 ft | 149 kts | 90° |
| 2026-04-26 13:48 | 42.77895 | -84.70196 | 2400 ft | 135 kts | 90° |
| 2026-04-26 13:49 | 42.77887 | -84.69029 | 2171 ft | 114 kts | 90° |
| 2026-04-26 13:49 | 42.77879 | -84.67986 | 2024 ft | 106 kts | 90° |
| 2026-04-26 13:49 | 42.77872 | -84.67008 | 1888 ft | 102 kts | 90° |
| 2026-04-26 13:49 | 42.77866 | -84.65998 | 1793 ft | 109 kts | 90° |
| 2026-04-26 13:50 | 42.77869 | -84.64983 | 1648 ft | 106 kts | 90° |
| 2026-04-26 13:50 | 42.77867 | -84.63963 | 1482 ft | 108 kts | 90° |
| 2026-04-26 13:50 | 42.77862 | -84.62946 | 1349 ft | 105 kts | 90° |
| 2026-04-26 13:50 | 42.77851 | -84.61961 | 1186 ft | 102 kts | 91° |
| 2026-04-26 13:51 | 42.77835 | -84.61000 | 1034 ft | 101 kts | 90° |
| 2026-04-26 13:51 | 42.77825 | -84.60040 | 872 ft | 98 kts | 90° |
| 2026-04-26 13:51 | 42.77816 | -84.59235 | 850 ft | 59 kts | 90° |
| 2026-04-26 13:51 | 42.77808 | -84.58884 | 850 ft | 17 kts | 110° |
| 2026-04-26 13:52 | 42.77745 | -84.58780 | 850 ft | 11 kts | 135° |
| 2026-04-26 13:52 | 42.77692 | -84.58759 | 850 ft | 8 kts | 240° |
| 2026-04-26 13:52 | 42.77689 | -84.58841 | 850 ft | 9 kts | 270° |
| 2026-04-26 13:52 | 42.77690 | -84.58929 | 850 ft | 9 kts | 270° |
| 2026-04-26 13:53 | 42.77691 | -84.59024 | 850 ft | 10 kts | 270° |
| 2026-04-26 13:53 | 42.77691 | -84.59126 | 850 ft | 11 kts | 270° |
| 2026-04-26 13:53 | 42.77661 | -84.59216 | 850 ft | 11 kts | 232° |
| 2026-04-26 13:53 | 42.77604 | -84.59311 | 851 ft | 11 kts | 216° |
| 2026-04-26 13:54 | 42.77538 | -84.59317 | 853 ft | 10 kts | 160° |
| 2026-04-26 13:54 | 42.77494 | -84.59271 | 853 ft | 6 kts | 141° |
| 2026-04-26 13:54 | 42.77458 | -84.59233 | 853 ft | 5 kts | 142° |
| 2026-04-26 13:55 | 42.77423 | -84.59229 | 853 ft | 2 kts | 233° |
| 2026-04-26 13:55 | 42.77422 | -84.59232 | 853 ft | 0 kts | 233° |